Terminal Aerodrome Forecast
Issued by NWS

Home | Current Version | Previous Version | Text Only | Print | Product List | Glossary On
Versions: 1 2 3 4 5 6 7 8 9 10 11 12 13 14 15
000
FTUS44 KJAN 190559
TAFGTR
TAF
KGTR 190559Z 1906/2006 15008KT P6SM VCSH SCT040 BKN100
     FM191500 19012G20KT 5SM +TSRA SCT015CB OVC050
     FM200100 21008KT 4SM BR SCT015 BKN100=

USA.gov is the U.S. government's official web portal to all federal, state and local government web resources and services.